createdAt,value
2022-12-29T00:00:53.587Z,75.26
2022-12-29T00:03:56.128Z,75.18
2022-12-29T00:06:58.675Z,74.68
2022-12-29T00:10:00.866Z,73.97
2022-12-29T00:13:21.549Z,73.62
2022-12-29T00:16:24.005Z,73.49
2022-12-29T00:19:55.470Z,72.96
2022-12-29T00:23:17.077Z,73.79
2022-12-29T00:26:39.180Z,73.08
2022-12-29T00:30:00.128Z,72.37
2022-12-29T00:33:20.484Z,71.95
2022-12-29T00:36:37.058Z,71.52
2022-12-29T00:39:59.797Z,71.64
2022-12-29T00:43:20.353Z,71.32
2022-12-29T00:46:22.476Z,71.52
2022-12-29T00:49:34.472Z,70.73
2022-12-29T00:52:36.835Z,71.79
2022-12-29T00:55:39.564Z,72.36
2022-12-29T00:58:41.715Z,71.76
2022-12-29T01:01:47.371Z,71.44
2022-12-29T01:04:50.988Z,71.21
2022-12-29T01:07:53.028Z,70.86
2022-12-29T01:11:12.365Z,70.74
2022-12-29T01:14:14.732Z,70.71
2022-12-29T01:17:16.961Z,70.33
2022-12-29T01:20:19.307Z,69.98
2022-12-29T01:23:21.382Z,69.56
2022-12-29T01:26:23.496Z,68.75
2022-12-29T01:29:27.669Z,68.90
2022-12-29T01:32:29.734Z,68.29
2022-12-29T01:35:32.815Z,68.39
2022-12-29T01:38:37.189Z,68.32
2022-12-29T01:41:42.419Z,69.58
2022-12-29T01:44:59.445Z,70.20
2022-12-29T01:48:06.392Z,69.73
2022-12-29T01:51:08.710Z,70.26
2022-12-29T01:54:20.931Z,69.87
2022-12-29T01:57:29.440Z,69.90
2022-12-29T02:00:31.839Z,69.29
2022-12-29T02:03:35.559Z,69.32
2022-12-29T02:06:53.098Z,69.12
2022-12-29T02:09:57.194Z,68.16
2022-12-29T02:13:00.340Z,68.46
2022-12-29T02:16:02.489Z,66.69
2022-12-29T02:19:50.402Z,67.72
2022-12-29T02:23:17.261Z,66.81
2022-12-29T02:26:26.074Z,67.07
2022-12-29T02:29:41.335Z,67.77
2022-12-29T02:32:52.673Z,69.09
2022-12-29T02:36:09.063Z,68.62
2022-12-29T02:39:33.130Z,67.86
2022-12-29T02:42:54.690Z,67.85
2022-12-29T02:46:05.918Z,67.62
2022-12-29T02:49:16.464Z,67.69
2022-12-29T02:52:29.399Z,67.58
2022-12-29T02:55:31.454Z,66.44
2022-12-29T02:58:33.848Z,66.44
2022-12-29T03:02:13.435Z,66.78
2022-12-29T03:05:42.675Z,66.18
2022-12-29T03:08:53.665Z,65.70
2022-12-29T03:12:15.728Z,65.87
2022-12-29T03:16:01.392Z,66.12
2022-12-29T03:19:20.480Z,66.48
2022-12-29T03:22:32.585Z,67.36
2022-12-29T03:25:46.987Z,66.47
2022-12-29T03:28:54.298Z,66.85
2022-12-29T03:32:01.255Z,66.60
2022-12-29T03:35:05.312Z,66.46
2022-12-29T03:38:34.857Z,66.50
2022-12-29T03:41:38.099Z,66.05
2022-12-29T03:44:42.591Z,64.94
2022-12-29T03:47:46.021Z,64.87
2022-12-29T03:50:48.752Z,64.85
2022-12-29T03:53:51.417Z,64.28
2022-12-29T03:56:53.524Z,64.68
2022-12-29T04:00:07.995Z,64.35
2022-12-29T04:03:19.631Z,64.76
2022-12-29T04:06:23.250Z,65.81
2022-12-29T04:09:32.436Z,65.93
2022-12-29T04:12:35.142Z,65.63
2022-12-29T04:15:38.215Z,65.66
2022-12-29T04:18:40.495Z,65.64
2022-12-29T04:21:42.937Z,64.83
2022-12-29T04:24:45.248Z,65.66
2022-12-29T04:27:47.895Z,65.10
2022-12-29T04:31:08.789Z,63.91
2022-12-29T04:34:14.617Z,63.72
2022-12-29T04:37:16.818Z,63.47
2022-12-29T04:40:19.621Z,64.04
2022-12-29T04:43:23.199Z,63.75
2022-12-29T04:46:48.121Z,63.49
2022-12-29T04:50:05.742Z,63.17
2022-12-29T04:53:18.020Z,62.93
2022-12-29T04:56:21.367Z,64.23
2022-12-29T04:59:24.168Z,65.00
2022-12-29T05:02:29.942Z,65.05
2022-12-29T05:05:32.700Z,63.91
2022-12-29T05:08:35.700Z,64.71
2022-12-29T05:11:38.989Z,64.39
2022-12-29T05:14:41.570Z,63.42
2022-12-29T05:17:43.726Z,62.68
2022-12-29T05:20:48.415Z,62.99
2022-12-29T05:23:50.932Z,62.63
2022-12-29T05:26:53.433Z,62.39
2022-12-29T05:30:15.030Z,62.51
2022-12-29T05:33:18.662Z,62.14
2022-12-29T05:36:21.067Z,62.16
2022-12-29T05:39:33.583Z,63.90
2022-12-29T05:42:38.605Z,64.23
2022-12-29T05:45:51.299Z,59.50
2022-12-29T05:49:20.381Z,59.14
2022-12-29T05:52:32.762Z,61.46
2022-12-29T05:55:36.131Z,61.27
2022-12-29T05:58:38.548Z,59.02
2022-12-29T06:01:41.569Z,58.33
2022-12-29T06:04:43.797Z,57.71
2022-12-29T06:07:46.954Z,55.60
2022-12-29T06:10:51.766Z,51.88
2022-12-29T06:13:54.184Z,60.06
2022-12-29T06:16:56.433Z,62.89
2022-12-29T06:19:59.781Z,65.78
2022-12-29T06:23:02.131Z,68.47
2022-12-29T06:26:05.398Z,67.73
2022-12-29T06:29:09.740Z,66.91
2022-12-29T06:32:12.317Z,68.88
2022-12-29T06:35:19.651Z,67.21
2022-12-29T06:38:26.999Z,70.35
2022-12-29T06:41:32.328Z,70.94
2022-12-29T06:44:49.480Z,71.27
2022-12-29T06:47:51.539Z,68.76
2022-12-29T06:50:54.789Z,70.89
2022-12-29T06:53:57.202Z,70.27
2022-12-29T06:57:00.586Z,71.71
2022-12-29T07:00:04.268Z,71.86
2022-12-29T07:03:06.590Z,68.93
2022-12-29T07:06:08.729Z,68.73
2022-12-29T07:09:11.308Z,69.95
2022-12-29T07:12:13.488Z,67.06
2022-12-29T07:15:16.343Z,68.07
2022-12-29T07:18:18.591Z,70.14
2022-12-29T07:21:20.927Z,69.29
2022-12-29T07:24:23.055Z,69.54
2022-12-29T07:27:25.063Z,71.63
2022-12-29T07:30:27.666Z,71.71
2022-12-29T07:33:30.795Z,71.49
2022-12-29T07:36:34.881Z,72.62
2022-12-29T07:39:37.064Z,71.59
2022-12-29T07:42:39.430Z,69.79
2022-12-29T07:45:44.234Z,73.07
2022-12-29T07:48:46.392Z,69.55
2022-12-29T07:51:51.068Z,72.29
2022-12-29T07:54:53.493Z,73.06
2022-12-29T07:57:56.467Z,71.47
2022-12-29T08:00:58.918Z,71.58
2022-12-29T08:04:01.298Z,72.80
2022-12-29T08:07:04.187Z,69.00
2022-12-29T08:10:07.007Z,69.14
2022-12-29T08:13:09.198Z,69.83
2022-12-29T08:16:11.407Z,65.55
2022-12-29T08:19:19.905Z,66.53
2022-12-29T08:22:22.077Z,66.84
2022-12-29T08:25:24.277Z,64.75
2022-12-29T08:28:26.972Z,64.70
2022-12-29T08:31:29.689Z,65.36
2022-12-29T08:34:32.960Z,66.02
2022-12-29T08:37:35.216Z,64.41
2022-12-29T08:40:37.603Z,64.16
2022-12-29T08:43:39.925Z,65.92
2022-12-29T08:46:42.305Z,66.63
2022-12-29T08:49:44.373Z,67.10
2022-12-29T08:52:46.559Z,67.91
2022-12-29T08:56:04.024Z,68.25
2022-12-29T08:59:11.893Z,67.46
2022-12-29T09:02:20.325Z,67.02
2022-12-29T09:05:26.609Z,66.98
2022-12-29T09:08:29.056Z,73.87
2022-12-29T09:11:31.277Z,69.28
2022-12-29T09:14:33.544Z,65.58
2022-12-29T09:17:45.682Z,64.90
2022-12-29T09:20:48.606Z,66.23
2022-12-29T09:23:51.549Z,66.56
2022-12-29T09:26:53.476Z,65.67
2022-12-29T09:29:55.549Z,65.50
2022-12-29T09:32:58.340Z,65.96
2022-12-29T09:36:00.593Z,69.59
2022-12-29T09:39:02.665Z,73.67
2022-12-29T09:42:10.368Z,76.49
2022-12-29T09:45:20.162Z,78.10
2022-12-29T09:48:28.541Z,74.21
2022-12-29T09:51:32.637Z,72.13
2022-12-29T09:54:43.470Z,71.85
2022-12-29T09:58:12.425Z,70.21
2022-12-29T10:01:35.454Z,70.07
2022-12-29T10:04:45.448Z,69.36
2022-12-29T10:08:15.679Z,69.92
2022-12-29T10:11:19.490Z,69.10
2022-12-29T10:14:38.388Z,68.64
2022-12-29T10:27:15.021Z,68.11
2022-12-29T10:30:17.527Z,69.85
2022-12-29T10:33:37.591Z,70.21
2022-12-29T10:36:50.538Z,69.51
2022-12-29T10:39:54.521Z,69.06
2022-12-29T10:47:32.363Z,70.02
2022-12-29T10:50:35.060Z,71.48
2022-12-29T10:53:46.408Z,71.67
2022-12-29T10:57:26.970Z,71.80
2022-12-29T11:00:31.170Z,71.69
2022-12-29T11:03:38.913Z,71.55
2022-12-29T11:11:33.403Z,69.79
2022-12-29T11:18:14.536Z,71.71
2022-12-29T11:21:31.951Z,73.86
2022-12-29T11:24:34.947Z,75.62
2022-12-29T11:27:37.027Z,77.11
2022-12-29T11:30:39.559Z,77.72
2022-12-29T11:33:41.909Z,78.57
2022-12-29T11:36:44.090Z,80.12
2022-12-29T11:39:58.748Z,82.13
2022-12-29T11:43:05.873Z,84.42
2022-12-29T11:46:14.918Z,85.72
2022-12-29T11:49:24.940Z,87.83
2022-12-29T11:52:34.300Z,92.10
2022-12-29T11:55:36.417Z,91.32
2022-12-29T11:58:39.804Z,90.63
2022-12-29T12:01:44.323Z,88.90
2022-12-29T12:04:50.431Z,88.58
2022-12-29T12:08:11.709Z,87.68
2022-12-29T12:11:25.470Z,87.94
2022-12-29T12:14:44.946Z,86.74
2022-12-29T12:18:33.423Z,86.86
2022-12-29T12:21:46.039Z,88.72
2022-12-29T12:25:13.917Z,89.08
2022-12-29T12:28:27.072Z,88.15
2022-12-29T12:31:43.337Z,87.70
2022-12-29T12:34:48.783Z,87.92
2022-12-29T12:38:19.846Z,87.05
2022-12-29T12:41:47.493Z,87.17
2022-12-29T12:45:13.203Z,87.28
2022-12-29T12:48:42.450Z,87.59
2022-12-29T12:52:08.912Z,89.50
2022-12-29T12:55:35.232Z,90.05
2022-12-29T12:58:58.258Z,89.23
2022-12-29T13:02:22.228Z,90.91
2022-12-29T13:05:36.492Z,90.56
2022-12-29T13:09:12.482Z,92.43
2022-12-29T13:12:20.292Z,92.20
2022-12-29T13:15:45.363Z,92.97
2022-12-29T13:19:11.472Z,92.66
2022-12-29T13:22:40.050Z,92.56
2022-12-29T13:25:54.746Z,93.62
2022-12-29T13:29:18.544Z,95.33
2022-12-29T13:32:33.730Z,94.93
2022-12-29T13:35:47.028Z,94.17
2022-12-29T13:38:57.218Z,94.66
2022-12-29T13:42:01.674Z,95.67
2022-12-29T13:45:08.212Z,95.65
2022-12-29T13:48:26.492Z,96.22
2022-12-29T13:51:30.209Z,95.57
2022-12-29T13:54:32.488Z,95.85
2022-12-29T13:58:00.983Z,100.00
2022-12-29T14:01:39.257Z,98.82
2022-12-29T14:05:01.738Z,99.05
2022-12-29T14:08:07.563Z,99.62
2022-12-29T14:11:15.489Z,99.15
2022-12-29T14:14:22.669Z,100.00
2022-12-29T14:17:25.058Z,100.00
2022-12-29T14:20:27.436Z,100.00
2022-12-29T14:23:37.260Z,100.00
2022-12-29T14:26:39.327Z,100.00
2022-12-29T14:29:47.241Z,100.00
2022-12-29T14:33:14.233Z,100.00
2022-12-29T14:36:20.706Z,100.00
2022-12-29T14:39:34.620Z,99.49
2022-12-29T14:42:41.533Z,99.73
2022-12-29T14:45:44.108Z,99.01
2022-12-29T14:48:46.447Z,98.23
2022-12-29T14:51:50.107Z,97.64
2022-12-29T14:55:19.004Z,98.37
2022-12-29T14:58:58.389Z,98.25
2022-12-29T15:02:07.385Z,99.26
2022-12-29T15:05:29.365Z,98.44
2022-12-29T15:08:39.951Z,99.34
2022-12-29T15:11:45.214Z,99.96
2022-12-29T15:14:58.067Z,99.79
2022-12-29T15:18:15.540Z,100.00
2022-12-29T15:21:26.291Z,99.87
2022-12-29T15:24:37.965Z,99.41
2022-12-29T15:31:06.987Z,99.98
2022-12-29T15:34:14.828Z,99.38
2022-12-29T15:37:24.864Z,99.81
2022-12-29T15:40:32.638Z,97.20
2022-12-29T15:43:49.878Z,97.42
2022-12-29T15:46:53.240Z,96.16
2022-12-29T15:50:36.513Z,97.17
2022-12-29T15:53:39.116Z,98.22
2022-12-29T15:56:42.346Z,98.79
2022-12-29T15:59:52.291Z,99.12
2022-12-29T16:02:56.681Z,98.67
2022-12-29T16:06:12.334Z,93.72
2022-12-29T16:09:20.234Z,84.85
2022-12-29T16:12:28.223Z,78.82
2022-12-29T16:15:30.739Z,77.39
2022-12-29T16:18:38.751Z,78.87
2022-12-29T16:21:43.851Z,79.48
2022-12-29T16:24:47.310Z,79.57
2022-12-29T16:27:50.552Z,80.11
2022-12-29T16:31:25.793Z,78.35
2022-12-29T16:34:46.296Z,72.13
2022-12-29T16:37:49.070Z,65.32
2022-12-29T16:41:04.827Z,62.38
2022-12-29T16:44:30.579Z,64.91
2022-12-29T16:47:32.659Z,66.08
2022-12-29T16:50:38.827Z,60.72
2022-12-29T16:53:43.099Z,61.67
2022-12-29T16:56:47.112Z,67.31
2022-12-29T16:59:52.909Z,70.38
2022-12-29T17:02:58.513Z,71.94
2022-12-29T17:06:00.757Z,73.86
2022-12-29T17:09:27.784Z,74.58
2022-12-29T17:12:33.521Z,75.64
2022-12-29T17:15:36.638Z,75.82
2022-12-29T17:22:26.186Z,76.50
2022-12-29T17:25:49.429Z,76.33
2022-12-29T17:29:07.992Z,74.01
2022-12-29T17:32:17.753Z,73.13
2022-12-29T17:35:22.248Z,67.03
2022-12-29T17:38:48.998Z,69.93
2022-12-29T17:41:53.864Z,71.22
2022-12-29T17:48:40.242Z,64.90
2022-12-29T17:53:00.833Z,69.41
2022-12-29T18:05:43.322Z,63.67
2022-12-29T18:09:50.456Z,61.01
2022-12-29T18:13:15.816Z,66.98
2022-12-29T18:17:26.334Z,65.06
2022-12-29T18:20:30.749Z,59.95
2022-12-29T18:23:37.040Z,64.35
2022-12-29T18:26:49.089Z,65.76
2022-12-29T18:33:58.924Z,63.37
2022-12-29T18:37:03.085Z,67.95
2022-12-29T18:40:05.902Z,67.95
2022-12-29T18:43:55.213Z,69.81
2022-12-29T18:46:57.923Z,71.62
2022-12-29T18:50:00.000Z,74.62
2022-12-29T18:53:04.133Z,74.21
2022-12-29T18:56:07.703Z,76.53
2022-12-29T18:59:09.815Z,79.30
2022-12-29T19:02:17.799Z,80.91
2022-12-29T19:05:26.019Z,81.99
2022-12-29T19:08:28.247Z,82.79
2022-12-29T19:11:30.342Z,81.59
2022-12-29T19:14:32.551Z,80.06
2022-12-29T19:17:37.261Z,80.63
2022-12-29T19:20:42.868Z,80.41
2022-12-29T19:23:45.254Z,79.37
2022-12-29T19:26:49.603Z,79.43
2022-12-29T19:29:51.616Z,79.29
2022-12-29T19:32:57.865Z,79.91
2022-12-29T19:36:02.602Z,79.32
2022-12-29T19:39:04.881Z,80.47
2022-12-29T19:42:09.441Z,79.58
2022-12-29T19:45:12.109Z,80.53
2022-12-29T19:48:19.146Z,79.76
2022-12-29T19:51:25.606Z,78.27
2022-12-29T19:54:30.111Z,78.87
2022-12-29T19:57:32.687Z,78.67
2022-12-29T20:00:34.883Z,77.54
2022-12-29T20:03:39.618Z,77.15
2022-12-29T20:06:44.118Z,76.94
2022-12-29T20:09:47.755Z,76.93
2022-12-29T20:12:50.350Z,78.23
2022-12-29T20:15:58.241Z,76.74
2022-12-29T20:19:00.376Z,77.64
2022-12-29T20:22:06.744Z,77.45
2022-12-29T20:25:43.622Z,76.91
2022-12-29T20:28:33.037Z,77.40
2022-12-29T20:31:39.022Z,76.94
2022-12-29T20:34:43.166Z,76.43
2022-12-29T20:37:45.219Z,75.94
2022-12-29T20:40:47.275Z,80.29
2022-12-29T20:43:50.044Z,78.13
2022-12-29T20:46:52.602Z,78.08
2022-12-29T20:49:57.022Z,78.30
2022-12-29T20:52:59.933Z,78.12
2022-12-29T20:56:05.257Z,76.08
2022-12-29T20:59:26.834Z,75.48
2022-12-29T21:02:36.863Z,76.05
2022-12-29T21:05:41.185Z,74.34
2022-12-29T21:09:10.985Z,74.29
2022-12-29T21:12:24.395Z,74.48
2022-12-29T21:20:25.019Z,72.53
2022-12-29T21:23:29.144Z,73.13
2022-12-29T21:26:36.098Z,72.67
2022-12-29T21:29:45.237Z,72.89
2022-12-29T21:32:49.485Z,73.98
2022-12-29T21:36:09.342Z,75.02
2022-12-29T21:39:13.733Z,74.84
2022-12-29T21:42:18.588Z,74.90
2022-12-29T21:45:26.775Z,73.65
2022-12-29T21:48:30.318Z,73.45
2022-12-29T21:51:54.141Z,72.89
2022-12-29T21:55:40.694Z,72.53
2022-12-29T21:59:04.365Z,71.97
2022-12-29T22:02:38.941Z,72.60
2022-12-29T22:06:03.174Z,72.64
2022-12-29T22:09:23.404Z,72.63
2022-12-29T22:12:46.605Z,72.43
2022-12-29T22:15:53.627Z,73.29
2022-12-29T22:19:04.603Z,72.67
2022-12-29T22:22:09.171Z,72.95
2022-12-29T22:25:11.408Z,72.30
2022-12-29T22:28:13.474Z,73.60
2022-12-29T22:31:45.556Z,73.53
2022-12-29T22:34:51.044Z,73.36
2022-12-29T22:37:53.454Z,72.76
2022-12-29T22:40:59.746Z,73.09
2022-12-29T22:44:02.217Z,72.45
2022-12-29T22:47:04.478Z,71.39
2022-12-29T22:50:06.972Z,71.25
2022-12-29T22:53:09.330Z,71.20
2022-12-29T22:56:14.288Z,71.73
2022-12-29T22:59:16.687Z,71.42
2022-12-29T23:02:19.376Z,70.91
2022-12-29T23:05:22.606Z,71.38
2022-12-29T23:08:25.258Z,70.00
2022-12-29T23:11:28.453Z,69.38
2022-12-29T23:14:30.793Z,68.55
2022-12-29T23:17:33.273Z,68.67
2022-12-29T23:20:37.933Z,68.12
2022-12-29T23:23:56.188Z,68.02
2022-12-29T23:26:58.368Z,67.21
2022-12-29T23:30:00.375Z,67.60
2022-12-29T23:33:02.645Z,67.23
2022-12-29T23:36:05.518Z,66.67
2022-12-29T23:39:11.056Z,66.64
2022-12-29T23:42:13.112Z,66.17
2022-12-29T23:45:15.394Z,65.75
2022-12-29T23:48:17.480Z,65.84
2022-12-29T23:51:19.837Z,65.27
2022-12-29T23:54:21.926Z,64.56
2022-12-29T23:57:24.010Z,65.51
